createdAt,value
2019-03-03T00:00:47.458Z,77.40
2019-03-03T00:03:16.097Z,77.32
2019-03-03T00:05:44.571Z,80.70
2019-03-03T00:08:13.243Z,73.28
2019-03-03T00:10:41.844Z,75.78
2019-03-03T00:13:10.399Z,81.50
2019-03-03T00:15:38.947Z,76.50
2019-03-03T00:18:07.435Z,74.55
2019-03-03T00:20:35.995Z,77.27
2019-03-03T00:23:04.497Z,75.65
2019-03-03T00:25:33.101Z,73.12
2019-03-03T00:28:01.606Z,70.32
2019-03-03T00:30:30.153Z,73.70
2019-03-03T00:32:58.659Z,71.85
2019-03-03T00:35:27.239Z,72.17
2019-03-03T00:38:06.343Z,75.17
2019-03-03T00:40:42.294Z,78.17
2019-03-03T00:43:21.372Z,72.65
2019-03-03T00:45:51.548Z,68.15
2019-03-03T00:48:21.706Z,68.45
2019-03-03T00:50:51.876Z,72.60
2019-03-03T00:53:43.536Z,71.82
2019-03-03T00:56:16.696Z,75.22
2019-03-03T00:58:46.851Z,74.60
2019-03-03T01:01:17.021Z,73.30
2019-03-03T01:03:49.985Z,72.22
2019-03-03T01:06:25.885Z,72.85
2019-03-03T01:08:56.058Z,71.15
2019-03-03T01:11:26.282Z,70.08
2019-03-03T01:13:56.446Z,65.30
2019-03-03T01:16:44.573Z,69.87
2019-03-03T01:19:17.555Z,67.60
2019-03-03T01:21:50.201Z,75.22
2019-03-03T01:24:29.566Z,65.25
2019-03-03T01:26:58.146Z,65.50
2019-03-03T01:29:29.745Z,69.65
2019-03-03T01:31:58.298Z,67.87
2019-03-03T01:34:29.496Z,60.55
2019-03-03T01:36:58.029Z,74.37
2019-03-03T01:39:26.634Z,70.47
2019-03-03T01:41:55.139Z,65.92
2019-03-03T01:44:23.725Z,62.83
2019-03-03T01:46:52.249Z,65.83
2019-03-03T01:49:21.828Z,59.38
2019-03-03T01:51:50.347Z,65.05
2019-03-03T01:54:18.875Z,69.20
2019-03-03T01:56:47.474Z,61.18
2019-03-03T01:59:15.980Z,58.00
2019-03-03T02:01:44.723Z,62.15
2019-03-03T02:04:13.327Z,60.23
2019-03-03T02:06:41.895Z,52.23
2019-03-03T02:09:12.038Z,54.83
2019-03-03T02:11:40.635Z,59.58
2019-03-03T02:14:09.171Z,62.25
2019-03-03T02:16:37.824Z,52.95
2019-03-03T02:19:06.413Z,51.55
2019-03-03T02:21:34.924Z,52.50
2019-03-03T02:24:03.448Z,52.98
2019-03-03T02:26:31.982Z,54.90
2019-03-03T02:29:00.481Z,53.70
2019-03-03T02:31:29.028Z,58.08
2019-03-03T02:33:57.630Z,53.98
2019-03-03T02:36:26.242Z,62.40
2019-03-03T02:38:54.834Z,58.02
2019-03-03T02:41:23.319Z,63.70
2019-03-03T02:43:51.873Z,72.45
2019-03-03T02:46:20.396Z,70.65
2019-03-03T02:48:48.998Z,77.78
2019-03-03T02:51:17.505Z,81.15
2019-03-03T02:53:46.094Z,70.40
2019-03-03T02:56:14.687Z,76.57
2019-03-03T02:58:43.375Z,72.05
2019-03-03T03:01:13.553Z,76.45
2019-03-03T03:03:42.049Z,87.88
2019-03-03T03:06:15.207Z,93.50
2019-03-03T03:08:45.347Z,99.40
2019-03-03T03:11:21.296Z,101.15
2019-03-03T03:13:57.189Z,100.30
2019-03-03T03:16:30.171Z,95.67
2019-03-03T03:19:00.347Z,100.42
2019-03-03T03:21:39.477Z,97.12
2019-03-03T03:24:18.289Z,95.53
2019-03-03T03:26:57.261Z,98.00
2019-03-03T03:29:27.424Z,94.83
2019-03-03T03:32:12.315Z,88.87
2019-03-03T03:34:45.246Z,99.37
2019-03-03T03:37:15.392Z,99.25
2019-03-03T03:39:45.654Z,86.47
2019-03-03T03:42:18.761Z,90.15
2019-03-03T03:45:05.563Z,102.82
2019-03-03T03:47:38.563Z,90.05
2019-03-03T03:50:13.133Z,96.02
2019-03-03T03:52:59.525Z,91.30
2019-03-03T03:55:45.041Z,105.90
2019-03-03T03:58:17.980Z,98.62
2019-03-03T04:00:48.208Z,96.70
2019-03-03T04:03:23.880Z,93.87
2019-03-03T04:05:59.653Z,99.95
2019-03-03T04:08:35.812Z,101.87
2019-03-03T04:11:08.979Z,91.50
2019-03-03T04:13:55.639Z,96.28
2019-03-03T04:16:40.779Z,78.35
2019-03-03T04:19:19.889Z,87.10
2019-03-03T04:21:50.124Z,89.72
2019-03-03T04:24:36.608Z,90.00
2019-03-03T04:27:12.497Z,85.40
2019-03-03T04:29:48.659Z,90.80
2019-03-03T04:32:18.837Z,89.22
2019-03-03T04:35:07.266Z,96.45
2019-03-03T04:37:54.066Z,86.20
2019-03-03T04:40:24.245Z,88.62
2019-03-03T04:42:54.406Z,84.83
2019-03-03T04:45:30.753Z,88.45
2019-03-03T04:48:03.864Z,88.30
2019-03-03T04:50:36.744Z,88.58
2019-03-03T04:53:12.706Z,86.55
2019-03-03T04:55:49.007Z,86.22
2019-03-03T04:58:25.033Z,83.60
2019-03-03T05:01:01.469Z,90.22
2019-03-03T05:03:34.725Z,84.45
2019-03-03T05:06:17.037Z,84.92
2019-03-03T05:08:47.175Z,82.00
2019-03-03T05:11:54.129Z,85.85
2019-03-03T05:14:24.314Z,94.35
2019-03-03T05:16:54.482Z,85.80
2019-03-03T05:19:23.439Z,80.83
2019-03-03T05:21:52.032Z,84.52
2019-03-03T05:24:20.572Z,84.13
2019-03-03T05:26:49.171Z,78.07
2019-03-03T05:29:17.813Z,78.75
2019-03-03T05:31:46.320Z,82.80
2019-03-03T05:34:14.883Z,77.12
2019-03-03T05:36:43.430Z,76.70
2019-03-03T05:39:12.023Z,79.77
2019-03-03T05:41:40.626Z,73.17
2019-03-03T05:44:09.249Z,77.25
2019-03-03T05:46:37.779Z,78.70
2019-03-03T05:49:06.352Z,73.28
2019-03-03T05:51:34.959Z,73.05
2019-03-03T05:54:03.525Z,71.20
2019-03-03T05:56:32.367Z,75.55
2019-03-03T05:59:00.883Z,76.92
2019-03-03T06:01:29.523Z,74.15
2019-03-03T06:03:57.983Z,70.25
2019-03-03T06:06:26.545Z,75.03
2019-03-03T06:08:55.088Z,74.35
2019-03-03T06:11:23.662Z,74.42
2019-03-03T06:13:52.278Z,77.35
2019-03-03T06:16:20.850Z,73.12
2019-03-03T06:18:49.371Z,72.95
2019-03-03T06:21:17.885Z,73.05
2019-03-03T06:23:46.429Z,69.82
2019-03-03T06:26:14.936Z,76.95
2019-03-03T06:28:43.526Z,77.00
2019-03-03T06:31:12.074Z,74.80
2019-03-03T06:33:40.614Z,70.12
2019-03-03T06:36:09.152Z,73.60
2019-03-03T06:38:37.758Z,71.20
2019-03-03T06:41:06.281Z,63.75
2019-03-03T06:43:34.828Z,76.97
2019-03-03T06:46:03.475Z,76.97
2019-03-03T06:48:33.650Z,77.78
2019-03-03T06:51:02.167Z,77.27
2019-03-03T06:53:30.714Z,83.33
2019-03-03T06:55:59.216Z,75.05
2019-03-03T06:58:27.803Z,77.20
2019-03-03T07:00:56.305Z,74.97
2019-03-03T07:03:24.915Z,76.22
2019-03-03T07:05:53.503Z,77.53
2019-03-03T07:08:22.190Z,79.50
2019-03-03T07:10:50.828Z,89.67
2019-03-03T07:13:19.439Z,83.75
2019-03-03T07:15:48.040Z,77.40
2019-03-03T07:18:16.623Z,86.40
2019-03-03T07:20:45.254Z,83.20
2019-03-03T07:23:13.752Z,82.25
2019-03-03T07:25:42.330Z,81.25
2019-03-03T07:28:10.947Z,86.50
2019-03-03T07:30:39.534Z,83.37
2019-03-03T07:33:09.774Z,79.20
2019-03-03T07:35:38.361Z,82.70
2019-03-03T07:38:06.955Z,86.15
2019-03-03T07:40:35.484Z,85.17
2019-03-03T07:43:04.004Z,83.40
2019-03-03T07:45:32.595Z,85.15
2019-03-03T07:48:01.357Z,83.50
2019-03-03T07:50:29.915Z,86.70
2019-03-03T07:52:58.512Z,85.60
2019-03-03T07:55:27.691Z,80.85
2019-03-03T07:57:56.243Z,84.00
2019-03-03T08:00:24.739Z,87.50
2019-03-03T08:02:53.263Z,88.52
2019-03-03T08:05:22.241Z,88.80
2019-03-03T08:07:50.787Z,89.42
2019-03-03T08:10:19.383Z,88.17
2019-03-03T08:12:47.902Z,83.62
2019-03-03T08:15:18.290Z,82.15
2019-03-03T08:17:46.816Z,84.00
2019-03-03T08:20:15.477Z,78.92
2019-03-03T08:22:44.032Z,79.67
2019-03-03T08:25:13.227Z,86.72
2019-03-03T08:27:41.779Z,88.40
2019-03-03T08:30:40.013Z,95.25
2019-03-03T08:32:59.881Z,95.38
2019-03-03T08:35:30.455Z,94.80
2019-03-03T08:37:59.047Z,97.02
2019-03-03T08:40:27.564Z,113.05
2019-03-03T08:43:10.085Z,102.42
2019-03-03T08:45:45.949Z,114.25
2019-03-03T08:48:28.338Z,99.55
2019-03-03T08:51:07.808Z,105.83
2019-03-03T08:53:40.950Z,109.67
2019-03-03T08:56:27.503Z,123.05
2019-03-03T08:59:03.514Z,125.58
2019-03-03T09:01:42.727Z,119.90
2019-03-03T09:04:15.857Z,113.70
2019-03-03T09:06:48.980Z,110.17
2019-03-03T09:09:19.168Z,116.35
2019-03-03T09:11:52.460Z,106.63
2019-03-03T09:14:25.314Z,101.82
2019-03-03T09:16:57.897Z,106.27
2019-03-03T09:19:31.134Z,110.85
2019-03-03T09:22:13.318Z,111.55
2019-03-03T09:27:14.723Z,116.08
2019-03-03T09:30:01.358Z,105.37
2019-03-03T09:32:40.390Z,116.97
2019-03-03T09:35:10.635Z,110.48
2019-03-03T09:37:40.804Z,112.30
2019-03-03T09:40:17.576Z,118.45
2019-03-03T09:42:47.720Z,111.22
2019-03-03T09:45:26.901Z,121.00
2019-03-03T09:47:57.082Z,111.05
2019-03-03T09:50:27.325Z,111.57
2019-03-03T09:52:57.576Z,112.80
2019-03-03T09:55:33.584Z,119.67
2019-03-03T09:58:06.826Z,108.12
2019-03-03T10:00:48.639Z,110.80
2019-03-03T10:03:18.824Z,115.70
2019-03-03T10:05:57.876Z,116.70
2019-03-03T10:08:31.032Z,119.75
2019-03-03T10:11:07.260Z,119.60
2019-03-03T10:13:39.980Z,122.15
2019-03-03T10:16:16.443Z,124.07
2019-03-03T10:19:07.132Z,121.00
2019-03-03T10:21:33.743Z,121.90
2019-03-03T10:24:04.030Z,124.75
2019-03-03T10:26:50.719Z,128.75
2019-03-03T10:29:20.855Z,127.85
2019-03-03T10:31:53.878Z,128.38
2019-03-03T10:34:24.101Z,140.32
2019-03-03T10:37:09.463Z,131.20
2019-03-03T10:39:42.764Z,119.00
2019-03-03T10:42:16.104Z,125.70
2019-03-03T10:44:46.358Z,134.07
2019-03-03T10:47:25.445Z,127.35
2019-03-03T10:50:04.652Z,133.40
2019-03-03T10:52:51.106Z,121.07
2019-03-03T10:55:26.726Z,131.40
2019-03-03T10:57:59.597Z,130.18
2019-03-03T11:00:30.336Z,129.35
2019-03-03T11:03:16.792Z,127.40
2019-03-03T11:05:47.023Z,129.95
2019-03-03T11:08:20.100Z,114.85
2019-03-03T11:10:57.741Z,120.37
2019-03-03T11:13:44.858Z,117.25
2019-03-03T11:16:17.633Z,121.30
2019-03-03T11:18:56.942Z,128.47
2019-03-03T11:21:34.974Z,123.22
2019-03-03T11:24:07.834Z,118.72
2019-03-03T11:26:38.057Z,116.40
2019-03-03T11:29:20.161Z,116.65
2019-03-03T11:32:08.552Z,119.20
2019-03-03T11:34:50.766Z,126.45
2019-03-03T11:39:50.585Z,114.20
2019-03-03T11:42:26.670Z,120.65
2019-03-03T11:45:03.149Z,125.05
2019-03-03T11:47:33.328Z,126.65
2019-03-03T11:50:03.491Z,118.72
2019-03-03T11:52:40.292Z,124.12
2019-03-03T11:55:25.533Z,115.90
2019-03-03T11:57:55.714Z,111.05
2019-03-03T12:00:28.738Z,108.55
2019-03-03T12:03:07.798Z,108.03
2019-03-03T12:05:38.015Z,109.70
2019-03-03T12:08:11.286Z,109.57
2019-03-03T12:10:44.130Z,103.20
2019-03-03T12:13:30.350Z,110.80
2019-03-03T12:16:00.647Z,119.50
2019-03-03T12:18:42.837Z,115.82
2019-03-03T12:23:45.678Z,109.60
2019-03-03T12:26:21.354Z,109.37
2019-03-03T12:29:06.695Z,99.75
2019-03-03T12:31:45.829Z,108.67
2019-03-03T12:34:18.806Z,109.30
2019-03-03T12:37:01.107Z,92.02
2019-03-03T12:39:31.307Z,97.90
2019-03-03T12:42:03.576Z,91.78
2019-03-03T12:44:49.544Z,83.65
2019-03-03T12:47:25.443Z,91.45
2019-03-03T12:50:04.687Z,100.15
2019-03-03T12:52:53.272Z,96.22
2019-03-03T12:55:39.861Z,95.12
2019-03-03T12:58:20.437Z,88.52
2019-03-03T13:01:06.721Z,95.60
2019-03-03T13:03:43.794Z,92.35
2019-03-03T13:06:13.963Z,90.62
2019-03-03T13:08:59.889Z,91.08
2019-03-03T13:11:50.805Z,88.40
2019-03-03T13:14:20.875Z,94.83
2019-03-03T13:16:51.109Z,89.28
2019-03-03T13:19:21.405Z,79.92
2019-03-03T13:21:57.714Z,81.02
2019-03-03T13:24:34.133Z,84.83
2019-03-03T13:27:07.392Z,74.20
2019-03-03T13:29:43.347Z,81.37
2019-03-03T13:32:19.224Z,81.10
2019-03-03T13:34:55.096Z,86.72
2019-03-03T13:37:37.239Z,83.27
2019-03-03T13:42:58.735Z,83.55
2019-03-03T13:45:28.637Z,80.05
2019-03-03T13:47:57.220Z,83.82
2019-03-03T13:50:25.836Z,84.55
2019-03-03T13:52:54.381Z,77.05
2019-03-03T13:55:22.896Z,75.92
2019-03-03T13:57:51.678Z,73.90
2019-03-03T14:00:22.759Z,72.03
2019-03-03T14:02:51.343Z,76.97
2019-03-03T14:05:21.509Z,75.22
2019-03-03T14:07:50.107Z,72.55
2019-03-03T14:10:18.629Z,74.27
2019-03-03T14:12:47.244Z,71.12
2019-03-03T14:15:22.956Z,66.22
2019-03-03T14:17:51.554Z,69.60
2019-03-03T14:20:21.816Z,67.82
2019-03-03T14:22:51.014Z,65.32
2019-03-03T14:25:19.738Z,64.25
2019-03-03T14:27:48.245Z,61.42
2019-03-03T14:30:22.609Z,57.60
2019-03-03T14:32:51.114Z,59.20
2019-03-03T14:35:19.846Z,62.88
2019-03-03T14:37:48.396Z,56.98
2019-03-03T14:40:20.218Z,60.58
2019-03-03T14:42:48.751Z,57.73
2019-03-03T14:45:18.505Z,57.20
2019-03-03T14:47:48.890Z,57.93
2019-03-03T14:50:19.040Z,57.45
2019-03-03T14:52:51.548Z,64.05
2019-03-03T14:55:20.452Z,58.70
2019-03-03T14:57:48.998Z,57.88
2019-03-03T15:00:30.839Z,53.10
2019-03-03T15:03:01.051Z,54.05
2019-03-03T15:05:29.798Z,51.88
2019-03-03T15:07:58.451Z,54.05
2019-03-03T15:10:27.153Z,54.90
2019-03-03T15:12:55.985Z,56.85
2019-03-03T15:15:36.411Z,53.52
2019-03-03T15:18:04.907Z,54.23
2019-03-03T15:20:33.895Z,47.43
2019-03-03T15:23:02.421Z,53.92
2019-03-03T15:25:30.959Z,52.03
2019-03-03T15:27:59.569Z,55.10
2019-03-03T15:30:28.190Z,59.35
2019-03-03T15:32:56.680Z,52.80
2019-03-03T15:35:25.256Z,57.35
2019-03-03T15:37:53.752Z,52.95
2019-03-03T15:40:27.123Z,53.75
2019-03-03T15:42:55.653Z,55.40
2019-03-03T15:45:25.745Z,51.53
2019-03-03T15:47:54.338Z,54.58
2019-03-03T15:50:23.107Z,55.28
2019-03-03T15:52:51.742Z,56.13
2019-03-03T15:55:29.348Z,56.42
2019-03-03T15:57:57.906Z,52.08
2019-03-03T16:00:28.957Z,54.93
2019-03-03T16:02:57.620Z,57.67
2019-03-03T16:05:26.229Z,62.62
2019-03-03T16:07:54.733Z,56.45
2019-03-03T16:10:24.956Z,62.53
2019-03-03T16:12:53.531Z,54.60
2019-03-03T16:15:22.132Z,56.00
2019-03-03T16:17:50.672Z,58.28
2019-03-03T16:20:23.199Z,52.93
2019-03-03T16:22:51.840Z,62.73
2019-03-03T16:25:21.823Z,56.95
2019-03-03T16:27:50.335Z,61.05
2019-03-03T16:30:22.159Z,64.40
2019-03-03T16:32:50.780Z,62.65
2019-03-03T16:35:19.336Z,60.52
2019-03-03T16:37:47.944Z,65.28
2019-03-03T16:40:23.864Z,57.13
2019-03-03T16:42:52.422Z,55.33
2019-03-03T16:45:20.985Z,62.05
2019-03-03T16:47:49.610Z,57.00
2019-03-03T16:50:24.489Z,57.27
2019-03-03T16:52:53.040Z,59.10
2019-03-03T16:55:21.891Z,60.40
2019-03-03T16:57:50.516Z,67.90
2019-03-03T17:00:21.774Z,64.50
2019-03-03T17:02:50.516Z,66.67
2019-03-03T17:05:21.334Z,65.60
2019-03-03T17:07:49.897Z,65.05
2019-03-03T17:10:18.447Z,66.35
2019-03-03T17:12:46.982Z,59.42
2019-03-03T17:15:20.737Z,57.90
2019-03-03T17:17:49.391Z,73.12
2019-03-03T17:20:17.927Z,67.70
2019-03-03T17:22:46.536Z,69.05
2019-03-03T17:25:20.753Z,65.47
2019-03-03T17:27:49.391Z,62.80
2019-03-03T17:30:22.914Z,65.75
2019-03-03T17:32:51.439Z,66.62
2019-03-03T17:35:20.221Z,66.07
2019-03-03T17:37:48.928Z,64.32
2019-03-03T17:40:28.524Z,63.78
2019-03-03T17:42:57.142Z,64.35
2019-03-03T17:45:25.859Z,76.45
2019-03-03T17:47:54.523Z,68.00
2019-03-03T17:50:30.889Z,81.25
2019-03-03T17:53:00.703Z,66.67
2019-03-03T17:55:29.324Z,83.92
2019-03-03T17:57:58.003Z,64.05
2019-03-03T18:00:29.205Z,68.92
2019-03-03T18:02:57.763Z,63.33
2019-03-03T18:05:26.294Z,62.08
2019-03-03T18:07:54.943Z,65.30
2019-03-03T18:10:23.649Z,72.30
2019-03-03T18:12:52.278Z,75.55
2019-03-03T18:15:20.806Z,75.03
2019-03-03T18:17:50.528Z,81.90
2019-03-03T18:20:22.569Z,90.35
2019-03-03T18:22:51.175Z,83.03
2019-03-03T18:25:21.801Z,114.82
2019-03-03T18:27:50.652Z,121.40
2019-03-03T18:30:21.789Z,110.63
2019-03-03T18:32:50.308Z,156.77
2019-03-03T18:35:18.860Z,175.27
2019-03-03T18:37:47.395Z,147.78
2019-03-03T18:40:26.014Z,141.37
2019-03-03T18:42:54.542Z,133.97
2019-03-03T18:45:23.667Z,117.30
2019-03-03T18:47:52.343Z,118.47
2019-03-03T18:50:23.955Z,100.95
2019-03-03T18:52:52.551Z,92.60
2019-03-03T18:55:21.162Z,104.17
2019-03-03T18:57:50.767Z,111.12
2019-03-03T19:00:22.750Z,107.80
2019-03-03T19:02:51.558Z,104.07
2019-03-03T19:05:20.171Z,100.87
2019-03-03T19:07:48.796Z,100.90
2019-03-03T19:10:26.106Z,108.17
2019-03-03T19:12:54.678Z,105.67
2019-03-03T19:15:23.185Z,94.35
2019-03-03T19:17:54.576Z,81.67
2019-03-03T19:20:23.116Z,79.42
2019-03-03T19:22:51.653Z,79.42
2019-03-03T19:25:20.149Z,79.67
2019-03-03T19:27:48.747Z,66.20
2019-03-03T19:30:25.289Z,65.35
2019-03-03T19:33:06.271Z,65.52
2019-03-03T19:35:34.878Z,71.75
2019-03-03T19:38:03.810Z,66.62
2019-03-03T19:40:32.410Z,78.50
2019-03-03T19:43:00.969Z,83.30
2019-03-03T19:45:35.130Z,115.97
2019-03-03T19:48:04.839Z,124.47
2019-03-03T19:50:33.578Z,127.75
2019-03-03T19:53:02.343Z,169.50
2019-03-03T19:55:31.042Z,171.30
2019-03-03T19:57:59.765Z,159.25
2019-03-03T20:00:39.022Z,122.07
2019-03-03T20:03:08.101Z,89.28
2019-03-03T20:05:36.822Z,80.62
2019-03-03T20:08:06.275Z,75.55
2019-03-03T20:10:35.683Z,70.47
2019-03-03T20:13:04.874Z,58.50
2019-03-03T20:15:33.623Z,63.17
2019-03-03T20:18:02.445Z,60.65
2019-03-03T20:20:31.703Z,67.03
2019-03-03T20:23:02.083Z,61.83
2019-03-03T20:25:30.842Z,63.10
2019-03-03T20:28:00.015Z,60.50
2019-03-03T20:30:30.332Z,57.50
2019-03-03T20:32:59.064Z,67.20
2019-03-03T20:35:27.817Z,67.17
2019-03-03T20:37:56.548Z,60.88
2019-03-03T20:40:29.334Z,62.25
2019-03-03T20:43:00.598Z,66.37
2019-03-03T20:45:35.143Z,72.00
2019-03-03T20:48:03.858Z,64.32
2019-03-03T20:50:32.650Z,69.35
2019-03-03T20:53:01.394Z,63.68
2019-03-03T20:55:31.856Z,66.82
2019-03-03T20:58:02.147Z,60.92
2019-03-03T21:00:34.981Z,64.72
2019-03-03T21:03:04.959Z,67.40
2019-03-03T21:05:33.670Z,69.45
2019-03-03T21:08:02.501Z,67.40
2019-03-03T21:10:35.026Z,66.62
2019-03-03T21:13:03.716Z,65.60
2019-03-03T21:15:32.445Z,65.25
2019-03-03T21:18:01.208Z,66.65
2019-03-03T21:20:29.880Z,67.17
2019-03-03T21:22:58.655Z,67.27
2019-03-03T21:25:27.398Z,68.92
2019-03-03T21:27:56.054Z,71.02
2019-03-03T21:30:25.621Z,62.58
2019-03-03T21:32:54.352Z,67.58
2019-03-03T21:35:23.159Z,66.02
2019-03-03T21:37:51.737Z,67.95
2019-03-03T21:40:27.413Z,75.42
2019-03-03T21:42:55.989Z,81.87
2019-03-03T21:45:29.717Z,73.57
2019-03-03T21:47:58.257Z,73.47
2019-03-03T21:50:30.670Z,77.10
2019-03-03T21:52:59.313Z,80.45
2019-03-03T21:55:27.874Z,73.35
2019-03-03T21:57:56.577Z,79.62
2019-03-03T22:00:33.567Z,81.42
2019-03-03T22:03:02.211Z,78.05
2019-03-03T22:05:30.886Z,77.20
2019-03-03T22:07:59.427Z,77.17
2019-03-03T22:10:31.668Z,81.37
2019-03-03T22:13:01.731Z,77.87
2019-03-03T22:15:30.409Z,84.80
2019-03-03T22:18:00.571Z,84.05
2019-03-03T22:20:29.103Z,82.00
2019-03-03T22:22:57.689Z,82.15
2019-03-03T22:25:26.318Z,83.62
2019-03-03T22:27:54.835Z,80.47
2019-03-03T22:30:23.373Z,80.90
2019-03-03T22:32:53.524Z,79.72
2019-03-03T22:35:22.151Z,81.42
2019-03-03T22:37:51.189Z,84.05
2019-03-03T22:40:24.499Z,79.15
2019-03-03T22:42:53.071Z,74.00
2019-03-03T22:45:22.124Z,86.47
2019-03-03T22:47:50.665Z,74.90
2019-03-03T22:50:22.525Z,77.08
2019-03-03T22:52:52.684Z,81.78
2019-03-03T22:55:21.820Z,73.47
2019-03-03T22:57:50.399Z,75.85
2019-03-03T23:00:46.776Z,85.87
2019-03-03T23:03:30.661Z,78.40
2019-03-03T23:06:11.247Z,113.50
2019-03-03T23:08:48.827Z,78.83
2019-03-03T23:11:29.063Z,72.90
2019-03-03T23:14:00.881Z,74.70
2019-03-03T23:16:38.602Z,68.05
2019-03-03T23:19:25.200Z,69.50
2019-03-03T23:22:13.711Z,66.37
2019-03-03T23:25:05.099Z,56.60
2019-03-03T23:27:35.259Z,64.60
2019-03-03T23:30:05.177Z,59.40
2019-03-03T23:32:33.712Z,61.08
2019-03-03T23:35:02.289Z,65.45
2019-03-03T23:37:30.896Z,68.25
2019-03-03T23:39:59.407Z,68.95
2019-03-03T23:42:27.986Z,67.80
2019-03-03T23:44:56.476Z,67.65
2019-03-03T23:47:26.720Z,66.90
2019-03-03T23:49:55.223Z,64.58
2019-03-03T23:52:26.820Z,69.77
2019-03-03T23:54:55.448Z,66.67
2019-03-03T23:57:24.045Z,65.42
2019-03-03T23:59:52.574Z,66.37
